FMNM

Details ICAO FMNM (MJN)
Name PHILIBERT TSIRANANA
Region Comoros, Mayotte, Réunion and Madagascar
Timezone Indian/Antananarivo (UTC+3.0)
Plans Departing 23
Arriving 29
Stats Elevation 87 ft / 27 m (AMSL)
Location -15.667144° 46.351829°
Runways 1
Magnetic Variation 11.247° W
Sunrise 2018-05-25 03:13:50 UTC / 2018-05-25 06:13:50 Local
Sunset 2018-05-25 14:32:04 UTC / 2018-05-25 17:32:04 Local
Advertisement - Login to hide

Runways

ID Width Length Bearing (true) Bearing (mag) Surface Threshold Offset Overrun Length
14 148 ft / 45 m 7,235 ft / 2,205 m 132.37° 143.62° Asphalt 0 ft / 0 m 98 ft / 30 m
32 148 ft / 45 m 7,235 ft / 2,205 m 312.37° 323.62° Asphalt 0 ft / 0 m 98 ft / 30 m

Map

Weather


0- 5 10 15 20 25 30 35+ Temperature / ° C

Clouds and Precipitation
Forecast for 2018-05-25 12:00 UTC. Updated 3 hours ago

Ground ~20,000 ft ~40,000 ft Winds

METAR

FMNM 251400Z 12006KT 9999 FEW023 31/17 Q1012 NOSIG

TAF

TAF FMNM 250500Z 2506/2606 14007KT 9999 FEW040= TAF FMMT 250500Z 2506/2606 22009KT 9999 SCT017 SCT033 PROB30 TEMPO 2603/2606 4000 SHRA

Frequencies

Tower 119.10 MHz MAHAJANGA TWR
Warning: Do not use this data for real-world aviation or navigation. No guarantee of current accuracy is given.